sensor_id;sensor_type;location;lat;lon;timestamp;temperature;humidity
11934;DHT22;6026;48.784;9.198;2024-01-30T00:01:19;5.00;99.90
11934;DHT22;6026;48.784;9.198;2024-01-30T00:03:45;4.90;99.90
11934;DHT22;6026;48.784;9.198;2024-01-30T00:06:11;4.80;99.90
11934;DHT22;6026;48.784;9.198;2024-01-30T00:08:37;4.80;99.90
11934;DHT22;6026;48.784;9.198;2024-01-30T00:11:03;4.80;99.90
11934;DHT22;6026;48.784;9.198;2024-01-30T00:13:28;4.70;99.90
11934;DHT22;6026;48.784;9.198;2024-01-30T00:15:54;4.70;99.90
11934;DHT22;6026;48.784;9.198;2024-01-30T00:18:20;4.60;99.90
11934;DHT22;6026;48.784;9.198;2024-01-30T00:20:45;4.60;99.90
11934;DHT22;6026;48.784;9.198;2024-01-30T00:23:11;4.60;99.90
11934;DHT22;6026;48.784;9.198;2024-01-30T00:25:36;4.50;99.90
11934;DHT22;6026;48.784;9.198;2024-01-30T00:28:02;4.50;99.90
11934;DHT22;6026;48.784;9.198;2024-01-30T00:30:28;4.50;99.90
11934;DHT22;6026;48.784;9.198;2024-01-30T00:32:54;4.50;99.90
11934;DHT22;6026;48.784;9.198;2024-01-30T00:35:19;4.40;99.90
11934;DHT22;6026;48.784;9.198;2024-01-30T00:37:47;4.40;99.90
11934;DHT22;6026;48.784;9.198;2024-01-30T00:40:13;4.40;99.90
11934;DHT22;6026;48.784;9.198;2024-01-30T00:42:42;4.40;99.90
11934;DHT22;6026;48.784;9.198;2024-01-30T00:45:15;4.40;99.90
11934;DHT22;6026;48.784;9.198;2024-01-30T00:47:41;4.30;99.90
11934;DHT22;6026;48.784;9.198;2024-01-30T00:50:07;4.30;99.90
11934;DHT22;6026;48.784;9.198;2024-01-30T00:52:33;4.20;99.90
11934;DHT22;6026;48.784;9.198;2024-01-30T00:54:59;4.20;99.90
11934;DHT22;6026;48.784;9.198;2024-01-30T00:57:25;4.30;99.90
11934;DHT22;6026;48.784;9.198;2024-01-30T00:59:50;4.40;99.90
11934;DHT22;6026;48.784;9.198;2024-01-30T01:02:16;4.50;99.90
11934;DHT22;6026;48.784;9.198;2024-01-30T01:04:43;4.60;99.90
11934;DHT22;6026;48.784;9.198;2024-01-30T01:07:10;4.60;99.90
11934;DHT22;6026;48.784;9.198;2024-01-30T01:09:35;4.40;99.90
11934;DHT22;6026;48.784;9.198;2024-01-30T01:12:01;4.40;99.90
11934;DHT22;6026;48.784;9.198;2024-01-30T01:14:27;4.40;99.90
11934;DHT22;6026;48.784;9.198;2024-01-30T01:16:52;4.40;99.90
11934;DHT22;6026;48.784;9.198;2024-01-30T01:19:18;4.20;99.90
11934;DHT22;6026;48.784;9.198;2024-01-30T01:21:44;4.10;99.90
11934;DHT22;6026;48.784;9.198;2024-01-30T01:24:09;4.40;99.90
11934;DHT22;6026;48.784;9.198;2024-01-30T01:26:35;4.40;99.90
11934;DHT22;6026;48.784;9.198;2024-01-30T01:29:00;4.30;99.90
11934;DHT22;6026;48.784;9.198;2024-01-30T01:31:26;4.20;99.90
11934;DHT22;6026;48.784;9.198;2024-01-30T01:33:55;4.20;99.90
11934;DHT22;6026;48.784;9.198;2024-01-30T01:36:20;4.20;99.90
11934;DHT22;6026;48.784;9.198;2024-01-30T01:38:46;4.10;99.90
11934;DHT22;6026;48.784;9.198;2024-01-30T01:41:11;4.10;99.90
11934;DHT22;6026;48.784;9.198;2024-01-30T01:43:37;4.10;99.90
11934;DHT22;6026;48.784;9.198;2024-01-30T01:46:05;4.30;99.90
11934;DHT22;6026;48.784;9.198;2024-01-30T01:48:30;4.30;99.90
11934;DHT22;6026;48.784;9.198;2024-01-30T01:50:56;4.20;99.90
11934;DHT22;6026;48.784;9.198;2024-01-30T01:53:22;4.10;99.90
11934;DHT22;6026;48.784;9.198;2024-01-30T01:55:47;4.10;99.90
11934;DHT22;6026;48.784;9.198;2024-01-30T01:58:14;4.10;99.90
11934;DHT22;6026;48.784;9.198;2024-01-30T02:00:40;4.00;99.90
11934;DHT22;6026;48.784;9.198;2024-01-30T02:03:09;4.00;99.90
11934;DHT22;6026;48.784;9.198;2024-01-30T02:05:36;4.00;99.90
11934;DHT22;6026;48.784;9.198;2024-01-30T02:08:05;4.00;99.90
11934;DHT22;6026;48.784;9.198;2024-01-30T02:10:31;3.90;99.90
11934;DHT22;6026;48.784;9.198;2024-01-30T02:12:56;3.80;99.90
11934;DHT22;6026;48.784;9.198;2024-01-30T02:15:22;3.90;99.90
11934;DHT22;6026;48.784;9.198;2024-01-30T02:17:48;3.80;99.90
11934;DHT22;6026;48.784;9.198;2024-01-30T02:20:13;4.00;99.90
11934;DHT22;6026;48.784;9.198;2024-01-30T02:22:40;3.90;99.90
11934;DHT22;6026;48.784;9.198;2024-01-30T02:25:06;3.90;99.90
11934;DHT22;6026;48.784;9.198;2024-01-30T02:27:32;3.70;99.90
11934;DHT22;6026;48.784;9.198;2024-01-30T02:29:58;3.70;99.90
11934;DHT22;6026;48.784;9.198;2024-01-30T02:32:23;3.70;99.90
11934;DHT22;6026;48.784;9.198;2024-01-30T02:34:49;3.70;99.90
11934;DHT22;6026;48.784;9.198;2024-01-30T02:37:14;3.60;99.90
11934;DHT22;6026;48.784;9.198;2024-01-30T02:39:40;3.60;99.90
11934;DHT22;6026;48.784;9.198;2024-01-30T02:42:05;3.60;99.90
11934;DHT22;6026;48.784;9.198;2024-01-30T02:44:31;3.60;99.90
11934;DHT22;6026;48.784;9.198;2024-01-30T02:46:56;3.60;99.90
11934;DHT22;6026;48.784;9.198;2024-01-30T02:49:22;3.50;99.90
11934;DHT22;6026;48.784;9.198;2024-01-30T02:51:48;3.50;99.90
11934;DHT22;6026;48.784;9.198;2024-01-30T02:54:13;3.50;99.90
11934;DHT22;6026;48.784;9.198;2024-01-30T02:56:39;3.40;99.90
11934;DHT22;6026;48.784;9.198;2024-01-30T02:59:05;3.30;99.90
11934;DHT22;6026;48.784;9.198;2024-01-30T03:01:30;3.20;99.90
11934;DHT22;6026;48.784;9.198;2024-01-30T03:03:57;3.10;99.90
11934;DHT22;6026;48.784;9.198;2024-01-30T03:06:22;3.10;99.90
11934;DHT22;6026;48.784;9.198;2024-01-30T03:08:48;3.10;99.90
11934;DHT22;6026;48.784;9.198;2024-01-30T03:11:14;3.10;99.90
11934;DHT22;6026;48.784;9.198;2024-01-30T03:13:39;3.10;99.90
11934;DHT22;6026;48.784;9.198;2024-01-30T03:16:06;3.10;99.90
11934;DHT22;6026;48.784;9.198;2024-01-30T03:18:31;3.10;99.90
11934;DHT22;6026;48.784;9.198;2024-01-30T03:20:57;3.00;99.90
11934;DHT22;6026;48.784;9.198;2024-01-30T03:23:22;3.00;99.90
11934;DHT22;6026;48.784;9.198;2024-01-30T03:25:48;3.00;99.90
11934;DHT22;6026;48.784;9.198;2024-01-30T03:28:13;3.00;99.90
11934;DHT22;6026;48.784;9.198;2024-01-30T03:30:39;2.90;99.90
11934;DHT22;6026;48.784;9.198;2024-01-30T03:33:04;2.90;99.90
11934;DHT22;6026;48.784;9.198;2024-01-30T03:35:30;2.90;99.90
11934;DHT22;6026;48.784;9.198;2024-01-30T03:37:55;2.90;99.90
11934;DHT22;6026;48.784;9.198;2024-01-30T03:40:21;2.90;99.90
11934;DHT22;6026;48.784;9.198;2024-01-30T03:42:46;2.90;99.90
11934;DHT22;6026;48.784;9.198;2024-01-30T03:45:12;2.90;99.90
11934;DHT22;6026;48.784;9.198;2024-01-30T03:47:38;2.80;99.90
11934;DHT22;6026;48.784;9.198;2024-01-30T03:50:03;2.80;99.90
11934;DHT22;6026;48.784;9.198;2024-01-30T03:52:30;2.80;99.90
11934;DHT22;6026;48.784;9.198;2024-01-30T03:54:55;2.80;99.90
11934;DHT22;6026;48.784;9.198;2024-01-30T03:57:21;2.80;99.90
11934;DHT22;6026;48.784;9.198;2024-01-30T03:59:47;2.80;99.90
11934;DHT22;6026;48.784;9.198;2024-01-30T04:02:12;2.80;99.90
11934;DHT22;6026;48.784;9.198;2024-01-30T04:04:38;2.80;99.90
11934;DHT22;6026;48.784;9.198;2024-01-30T04:07:04;2.80;99.90
11934;DHT22;6026;48.784;9.198;2024-01-30T04:09:29;2.80;99.90
11934;DHT22;6026;48.784;9.198;2024-01-30T04:11:55;2.70;99.90
11934;DHT22;6026;48.784;9.198;2024-01-30T04:14:20;2.80;99.90
11934;DHT22;6026;48.784;9.198;2024-01-30T04:16:46;2.70;99.90
11934;DHT22;6026;48.784;9.198;2024-01-30T04:19:12;2.70;99.90
11934;DHT22;6026;48.784;9.198;2024-01-30T04:21:37;2.70;99.90
11934;DHT22;6026;48.784;9.198;2024-01-30T04:24:03;2.70;99.90
11934;DHT22;6026;48.784;9.198;2024-01-30T04:26:28;2.70;99.90
11934;DHT22;6026;48.784;9.198;2024-01-30T04:28:54;2.60;99.90
11934;DHT22;6026;48.784;9.198;2024-01-30T04:31:20;2.60;99.90
11934;DHT22;6026;48.784;9.198;2024-01-30T04:33:45;2.60;99.90
11934;DHT22;6026;48.784;9.198;2024-01-30T04:36:11;2.60;99.90
11934;DHT22;6026;48.784;9.198;2024-01-30T04:38:37;2.60;99.90
11934;DHT22;6026;48.784;9.198;2024-01-30T04:41:04;2.60;99.90
11934;DHT22;6026;48.784;9.198;2024-01-30T04:43:29;2.50;99.90
11934;DHT22;6026;48.784;9.198;2024-01-30T04:45:55;2.60;99.90
11934;DHT22;6026;48.784;9.198;2024-01-30T04:48:21;2.50;99.90
11934;DHT22;6026;48.784;9.198;2024-01-30T04:50:46;2.60;99.90
11934;DHT22;6026;48.784;9.198;2024-01-30T04:53:12;2.50;99.90
11934;DHT22;6026;48.784;9.198;2024-01-30T04:55:37;2.50;99.90
11934;DHT22;6026;48.784;9.198;2024-01-30T04:58:03;2.50;99.90
11934;DHT22;6026;48.784;9.198;2024-01-30T05:00:29;2.50;99.90
11934;DHT22;6026;48.784;9.198;2024-01-30T05:02:57;2.50;99.90
11934;DHT22;6026;48.784;9.198;2024-01-30T05:05:23;2.60;99.90
11934;DHT22;6026;48.784;9.198;2024-01-30T05:07:49;2.80;99.90
11934;DHT22;6026;48.784;9.198;2024-01-30T05:10:14;2.80;99.90
11934;DHT22;6026;48.784;9.198;2024-01-30T05:12:40;2.70;99.90
11934;DHT22;6026;48.784;9.198;2024-01-30T05:15:06;2.70;99.90
11934;DHT22;6026;48.784;9.198;2024-01-30T05:17:31;2.60;99.90
11934;DHT22;6026;48.784;9.198;2024-01-30T05:19:57;2.70;99.90
11934;DHT22;6026;48.784;9.198;2024-01-30T05:22:23;2.60;99.90
11934;DHT22;6026;48.784;9.198;2024-01-30T05:24:48;2.60;99.90
11934;DHT22;6026;48.784;9.198;2024-01-30T05:27:14;2.50;99.90
11934;DHT22;6026;48.784;9.198;2024-01-30T05:29:40;2.50;99.90
11934;DHT22;6026;48.784;9.198;2024-01-30T05:32:06;2.40;99.90
11934;DHT22;6026;48.784;9.198;2024-01-30T05:34:32;2.40;99.90
11934;DHT22;6026;48.784;9.198;2024-01-30T05:36:57;2.40;99.90
11934;DHT22;6026;48.784;9.198;2024-01-30T05:39:23;2.40;99.90
11934;DHT22;6026;48.784;9.198;2024-01-30T05:41:48;2.30;99.90
11934;DHT22;6026;48.784;9.198;2024-01-30T05:44:14;2.30;99.90
11934;DHT22;6026;48.784;9.198;2024-01-30T05:46:40;2.30;99.90
11934;DHT22;6026;48.784;9.198;2024-01-30T05:49:05;2.30;99.90
11934;DHT22;6026;48.784;9.198;2024-01-30T05:51:31;2.30;99.90
11934;DHT22;6026;48.784;9.198;2024-01-30T05:53:56;2.30;99.90
11934;DHT22;6026;48.784;9.198;2024-01-30T05:56:22;2.30;99.90
11934;DHT22;6026;48.784;9.198;2024-01-30T05:58:48;2.30;99.90
11934;DHT22;6026;48.784;9.198;2024-01-30T06:01:15;2.30;99.90
11934;DHT22;6026;48.784;9.198;2024-01-30T06:03:41;2.30;99.90
11934;DHT22;6026;48.784;9.198;2024-01-30T06:06:08;2.30;99.90
11934;DHT22;6026;48.784;9.198;2024-01-30T06:08:34;2.40;99.90
11934;DHT22;6026;48.784;9.198;2024-01-30T06:11:00;2.30;99.90
11934;DHT22;6026;48.784;9.198;2024-01-30T06:13:26;2.30;99.90
11934;DHT22;6026;48.784;9.198;2024-01-30T06:15:52;2.30;99.90
11934;DHT22;6026;48.784;9.198;2024-01-30T06:18:17;2.20;99.90
11934;DHT22;6026;48.784;9.198;2024-01-30T06:20:43;2.20;99.90
11934;DHT22;6026;48.784;9.198;2024-01-30T06:23:08;2.20;99.90
11934;DHT22;6026;48.784;9.198;2024-01-30T06:25:34;2.20;99.90
11934;DHT22;6026;48.784;9.198;2024-01-30T06:28:00;2.20;99.90
11934;DHT22;6026;48.784;9.198;2024-01-30T06:30:25;2.20;99.90
11934;DHT22;6026;48.784;9.198;2024-01-30T06:32:51;2.20;99.90
11934;DHT22;6026;48.784;9.198;2024-01-30T06:35:16;2.20;99.90
11934;DHT22;6026;48.784;9.198;2024-01-30T06:37:43;2.20;99.90
11934;DHT22;6026;48.784;9.198;2024-01-30T06:40:09;2.00;99.90
11934;DHT22;6026;48.784;9.198;2024-01-30T06:42:34;2.10;99.90
11934;DHT22;6026;48.784;9.198;2024-01-30T06:45:00;2.10;99.90
11934;DHT22;6026;48.784;9.198;2024-01-30T06:47:25;2.10;99.90
11934;DHT22;6026;48.784;9.198;2024-01-30T06:49:51;2.10;99.90
11934;DHT22;6026;48.784;9.198;2024-01-30T06:52:16;2.10;99.90
11934;DHT22;6026;48.784;9.198;2024-01-30T06:54:42;2.10;99.90
11934;DHT22;6026;48.784;9.198;2024-01-30T06:57:08;2.20;99.90
11934;DHT22;6026;48.784;9.198;2024-01-30T06:59:37;2.50;99.90
11934;DHT22;6026;48.784;9.198;2024-01-30T07:02:07;2.50;99.90
11934;DHT22;6026;48.784;9.198;2024-01-30T07:04:33;2.50;99.90
11934;DHT22;6026;48.784;9.198;2024-01-30T07:06:58;2.50;99.90
11934;DHT22;6026;48.784;9.198;2024-01-30T07:09:24;2.50;99.90
11934;DHT22;6026;48.784;9.198;2024-01-30T07:11:49;2.40;99.90
11934;DHT22;6026;48.784;9.198;2024-01-30T07:14:15;2.40;99.90
11934;DHT22;6026;48.784;9.198;2024-01-30T07:16:40;2.40;99.90
11934;DHT22;6026;48.784;9.198;2024-01-30T07:19:06;2.40;99.90
11934;DHT22;6026;48.784;9.198;2024-01-30T07:21:34;2.40;99.90
11934;DHT22;6026;48.784;9.198;2024-01-30T07:24:00;2.40;99.90
11934;DHT22;6026;48.784;9.198;2024-01-30T07:26:25;2.50;99.90
11934;DHT22;6026;48.784;9.198;2024-01-30T07:28:51;2.50;99.90
11934;DHT22;6026;48.784;9.198;2024-01-30T07:31:16;2.50;99.90
11934;DHT22;6026;48.784;9.198;2024-01-30T07:33:42;2.60;99.90
11934;DHT22;6026;48.784;9.198;2024-01-30T07:36:08;2.60;99.90
11934;DHT22;6026;48.784;9.198;2024-01-30T07:38:34;2.70;99.90
11934;DHT22;6026;48.784;9.198;2024-01-30T07:40:59;2.70;99.90
11934;DHT22;6026;48.784;9.198;2024-01-30T07:43:25;2.80;99.90
11934;DHT22;6026;48.784;9.198;2024-01-30T07:45:51;2.80;99.90
11934;DHT22;6026;48.784;9.198;2024-01-30T07:48:16;2.80;99.90
11934;DHT22;6026;48.784;9.198;2024-01-30T07:50:42;3.00;99.90
11934;DHT22;6026;48.784;9.198;2024-01-30T07:53:07;3.10;99.90
11934;DHT22;6026;48.784;9.198;2024-01-30T07:55:33;3.10;99.90
11934;DHT22;6026;48.784;9.198;2024-01-30T07:57:59;3.20;99.90
11934;DHT22;6026;48.784;9.198;2024-01-30T08:00:25;3.30;99.90
11934;DHT22;6026;48.784;9.198;2024-01-30T08:02:51;3.40;99.90
11934;DHT22;6026;48.784;9.198;2024-01-30T08:05:19;3.50;99.90
11934;DHT22;6026;48.784;9.198;2024-01-30T08:07:45;3.60;99.90
11934;DHT22;6026;48.784;9.198;2024-01-30T08:10:11;3.60;99.90
11934;DHT22;6026;48.784;9.198;2024-01-30T08:12:38;3.70;99.90
11934;DHT22;6026;48.784;9.198;2024-01-30T08:15:05;3.80;99.90
11934;DHT22;6026;48.784;9.198;2024-01-30T08:17:30;4.00;99.90
11934;DHT22;6026;48.784;9.198;2024-01-30T08:19:56;4.00;99.90
11934;DHT22;6026;48.784;9.198;2024-01-30T08:22:21;4.10;99.90
11934;DHT22;6026;48.784;9.198;2024-01-30T08:24:47;4.30;99.90
11934;DHT22;6026;48.784;9.198;2024-01-30T08:27:12;4.50;99.90
11934;DHT22;6026;48.784;9.198;2024-01-30T08:29:38;4.70;99.90
11934;DHT22;6026;48.784;9.198;2024-01-30T08:32:05;5.00;99.90
11934;DHT22;6026;48.784;9.198;2024-01-30T08:34:31;5.30;99.90
11934;DHT22;6026;48.784;9.198;2024-01-30T08:36:56;5.70;99.90
11934;DHT22;6026;48.784;9.198;2024-01-30T08:39:22;6.10;99.90
11934;DHT22;6026;48.784;9.198;2024-01-30T08:41:47;6.40;99.90
11934;DHT22;6026;48.784;9.198;2024-01-30T08:44:13;6.90;99.90
11934;DHT22;6026;48.784;9.198;2024-01-30T08:46:38;7.30;99.90
11934;DHT22;6026;48.784;9.198;2024-01-30T08:49:04;7.60;99.90
11934;DHT22;6026;48.784;9.198;2024-01-30T08:51:30;7.90;99.90
11934;DHT22;6026;48.784;9.198;2024-01-30T08:53:56;8.10;99.90
11934;DHT22;6026;48.784;9.198;2024-01-30T08:56:21;7.90;99.90
11934;DHT22;6026;48.784;9.198;2024-01-30T08:58:47;8.00;99.90
11934;DHT22;6026;48.784;9.198;2024-01-30T09:01:12;8.10;99.90
11934;DHT22;6026;48.784;9.198;2024-01-30T09:03:38;8.20;99.90
11934;DHT22;6026;48.784;9.198;2024-01-30T09:06:09;8.20;99.90
11934;DHT22;6026;48.784;9.198;2024-01-30T09:08:35;8.20;99.90
11934;DHT22;6026;48.784;9.198;2024-01-30T09:11:01;8.20;99.90
11934;DHT22;6026;48.784;9.198;2024-01-30T09:13:26;8.30;99.90
11934;DHT22;6026;48.784;9.198;2024-01-30T09:15:52;8.30;99.90
11934;DHT22;6026;48.784;9.198;2024-01-30T09:18:18;8.50;99.90
11934;DHT22;6026;48.784;9.198;2024-01-30T09:20:44;8.70;99.90
11934;DHT22;6026;48.784;9.198;2024-01-30T09:23:12;9.00;99.90
11934;DHT22;6026;48.784;9.198;2024-01-30T09:25:38;9.30;99.90
11934;DHT22;6026;48.784;9.198;2024-01-30T09:28:04;9.70;99.90
11934;DHT22;6026;48.784;9.198;2024-01-30T09:30:30;10.00;99.90
11934;DHT22;6026;48.784;9.198;2024-01-30T09:32:55;10.30;99.90
11934;DHT22;6026;48.784;9.198;2024-01-30T09:35:21;10.60;99.90
11934;DHT22;6026;48.784;9.198;2024-01-30T09:37:47;10.70;99.90
11934;DHT22;6026;48.784;9.198;2024-01-30T09:40:13;10.90;99.90
11934;DHT22;6026;48.784;9.198;2024-01-30T09:42:40;11.20;99.90
11934;DHT22;6026;48.784;9.198;2024-01-30T09:45:08;11.30;99.90
11934;DHT22;6026;48.784;9.198;2024-01-30T09:47:43;11.40;99.90
11934;DHT22;6026;48.784;9.198;2024-01-30T09:50:09;11.60;99.90
11934;DHT22;6026;48.784;9.198;2024-01-30T09:52:36;11.60;99.90
11934;DHT22;6026;48.784;9.198;2024-01-30T09:55:02;11.60;99.90
11934;DHT22;6026;48.784;9.198;2024-01-30T09:57:28;11.60;99.90
11934;DHT22;6026;48.784;9.198;2024-01-30T09:59:54;11.60;99.90
11934;DHT22;6026;48.784;9.198;2024-01-30T10:02:20;11.60;99.90
11934;DHT22;6026;48.784;9.198;2024-01-30T10:04:50;11.50;99.90
11934;DHT22;6026;48.784;9.198;2024-01-30T10:07:17;11.80;99.90
11934;DHT22;6026;48.784;9.198;2024-01-30T10:09:42;11.80;99.90
11934;DHT22;6026;48.784;9.198;2024-01-30T10:12:11;11.80;99.90
11934;DHT22;6026;48.784;9.198;2024-01-30T10:14:41;12.00;99.90
11934;DHT22;6026;48.784;9.198;2024-01-30T10:17:11;12.10;99.90
11934;DHT22;6026;48.784;9.198;2024-01-30T10:19:41;12.00;99.90
11934;DHT22;6026;48.784;9.198;2024-01-30T10:22:07;11.90;99.90
11934;DHT22;6026;48.784;9.198;2024-01-30T10:24:33;11.80;99.90
11934;DHT22;6026;48.784;9.198;2024-01-30T10:26:59;11.60;99.90
11934;DHT22;6026;48.784;9.198;2024-01-30T10:29:25;11.40;99.90
11934;DHT22;6026;48.784;9.198;2024-01-30T10:32:01;11.40;99.90
11934;DHT22;6026;48.784;9.198;2024-01-30T10:34:27;11.30;99.90
11934;DHT22;6026;48.784;9.198;2024-01-30T10:39:32;11.30;99.90
11934;DHT22;6026;48.784;9.198;2024-01-30T10:42:04;11.20;99.90
11934;DHT22;6026;48.784;9.198;2024-01-30T10:44:36;11.10;99.90
11934;DHT22;6026;48.784;9.198;2024-01-30T10:47:06;11.10;99.90
11934;DHT22;6026;48.784;9.198;2024-01-30T10:49:34;11.00;99.90
11934;DHT22;6026;48.784;9.198;2024-01-30T10:52:00;10.90;99.90
11934;DHT22;6026;48.784;9.198;2024-01-30T10:54:26;10.90;99.90
11934;DHT22;6026;48.784;9.198;2024-01-30T10:56:53;10.90;99.90
11934;DHT22;6026;48.784;9.198;2024-01-30T10:59:19;10.80;99.90
11934;DHT22;6026;48.784;9.198;2024-01-30T11:01:45;10.70;99.90
11934;DHT22;6026;48.784;9.198;2024-01-30T11:04:11;10.70;99.90
11934;DHT22;6026;48.784;9.198;2024-01-30T11:06:43;10.90;99.90
11934;DHT22;6026;48.784;9.198;2024-01-30T11:09:11;10.90;99.90
11934;DHT22;6026;48.784;9.198;2024-01-30T11:11:57;10.90;99.90
11934;DHT22;6026;48.784;9.198;2024-01-30T11:14:34;10.90;99.90
11934;DHT22;6026;48.784;9.198;2024-01-30T11:17:00;11.00;99.90
11934;DHT22;6026;48.784;9.198;2024-01-30T11:19:26;11.00;99.90
11934;DHT22;6026;48.784;9.198;2024-01-30T11:21:55;11.10;99.90
11934;DHT22;6026;48.784;9.198;2024-01-30T11:24:23;11.20;99.90
11934;DHT22;6026;48.784;9.198;2024-01-30T11:27:03;11.20;99.90
11934;DHT22;6026;48.784;9.198;2024-01-30T11:29:35;11.20;99.90
11934;DHT22;6026;48.784;9.198;2024-01-30T11:32:00;11.30;99.90
11934;DHT22;6026;48.784;9.198;2024-01-30T11:34:26;11.30;99.90
11934;DHT22;6026;48.784;9.198;2024-01-30T11:36:59;11.30;99.90
11934;DHT22;6026;48.784;9.198;2024-01-30T11:39:31;11.30;99.90
11934;DHT22;6026;48.784;9.198;2024-01-30T11:41:58;11.30;99.90
11934;DHT22;6026;48.784;9.198;2024-01-30T11:44:24;11.30;99.90
11934;DHT22;6026;48.784;9.198;2024-01-30T11:46:51;11.30;99.90
11934;DHT22;6026;48.784;9.198;2024-01-30T11:49:18;11.30;99.90
11934;DHT22;6026;48.784;9.198;2024-01-30T11:51:46;11.40;99.90
11934;DHT22;6026;48.784;9.198;2024-01-30T11:54:14;11.50;99.90
11934;DHT22;6026;48.784;9.198;2024-01-30T11:56:39;11.50;99.90
11934;DHT22;6026;48.784;9.198;2024-01-30T11:59:05;11.50;99.90
11934;DHT22;6026;48.784;9.198;2024-01-30T12:01:31;11.50;99.90
11934;DHT22;6026;48.784;9.198;2024-01-30T12:03:58;11.50;99.90
11934;DHT22;6026;48.784;9.198;2024-01-30T12:06:23;11.60;99.90
11934;DHT22;6026;48.784;9.198;2024-01-30T12:08:59;11.70;99.90
11934;DHT22;6026;48.784;9.198;2024-01-30T12:11:26;11.70;99.90
11934;DHT22;6026;48.784;9.198;2024-01-30T12:13:52;11.70;99.90
11934;DHT22;6026;48.784;9.198;2024-01-30T12:19:40;11.70;99.90
11934;DHT22;6026;48.784;9.198;2024-01-30T12:22:06;11.70;99.90
11934;DHT22;6026;48.784;9.198;2024-01-30T12:24:31;11.80;99.90
11934;DHT22;6026;48.784;9.198;2024-01-30T12:26:58;11.80;99.90
11934;DHT22;6026;48.784;9.198;2024-01-30T12:29:24;11.80;99.90
11934;DHT22;6026;48.784;9.198;2024-01-30T12:31:53;11.80;99.90
11934;DHT22;6026;48.784;9.198;2024-01-30T12:34:19;11.90;99.90
11934;DHT22;6026;48.784;9.198;2024-01-30T12:36:47;11.90;99.90
11934;DHT22;6026;48.784;9.198;2024-01-30T12:39:13;11.90;99.90
11934;DHT22;6026;48.784;9.198;2024-01-30T12:41:40;12.00;99.90
11934;DHT22;6026;48.784;9.198;2024-01-30T12:44:06;12.00;99.90
11934;DHT22;6026;48.784;9.198;2024-01-30T12:46:31;12.00;99.90
11934;DHT22;6026;48.784;9.198;2024-01-30T12:48:59;12.10;99.90
11934;DHT22;6026;48.784;9.198;2024-01-30T12:51:24;12.10;99.90
11934;DHT22;6026;48.784;9.198;2024-01-30T12:53:50;12.30;99.90
11934;DHT22;6026;48.784;9.198;2024-01-30T12:56:16;12.50;99.90
11934;DHT22;6026;48.784;9.198;2024-01-30T12:58:41;12.70;99.90
11934;DHT22;6026;48.784;9.198;2024-01-30T13:01:08;12.80;99.90
11934;DHT22;6026;48.784;9.198;2024-01-30T13:03:34;13.00;99.90
11934;DHT22;6026;48.784;9.198;2024-01-30T13:06:00;12.90;99.90
11934;DHT22;6026;48.784;9.198;2024-01-30T13:08:25;13.00;99.90
11934;DHT22;6026;48.784;9.198;2024-01-30T13:10:51;13.00;99.90
11934;DHT22;6026;48.784;9.198;2024-01-30T13:13:16;12.90;99.90
11934;DHT22;6026;48.784;9.198;2024-01-30T13:15:42;13.00;99.90
11934;DHT22;6026;48.784;9.198;2024-01-30T13:18:08;13.00;99.90
11934;DHT22;6026;48.784;9.198;2024-01-30T13:20:33;13.10;99.90
11934;DHT22;6026;48.784;9.198;2024-01-30T13:22:59;13.40;99.90
11934;DHT22;6026;48.784;9.198;2024-01-30T13:25:24;13.60;99.90
11934;DHT22;6026;48.784;9.198;2024-01-30T13:27:50;13.80;99.90
11934;DHT22;6026;48.784;9.198;2024-01-30T13:30:16;14.00;99.90
11934;DHT22;6026;48.784;9.198;2024-01-30T13:32:41;14.10;99.90
11934;DHT22;6026;48.784;9.198;2024-01-30T13:35:09;14.10;99.90
11934;DHT22;6026;48.784;9.198;2024-01-30T13:37:35;14.10;99.90
11934;DHT22;6026;48.784;9.198;2024-01-30T13:40:05;13.90;99.90
11934;DHT22;6026;48.784;9.198;2024-01-30T13:42:32;13.80;99.90
11934;DHT22;6026;48.784;9.198;2024-01-30T13:44:58;13.70;99.90
11934;DHT22;6026;48.784;9.198;2024-01-30T13:47:23;13.50;99.90
11934;DHT22;6026;48.784;9.198;2024-01-30T13:49:49;13.40;99.90
11934;DHT22;6026;48.784;9.198;2024-01-30T13:52:15;13.20;99.90
11934;DHT22;6026;48.784;9.198;2024-01-30T13:54:40;13.20;99.90
11934;DHT22;6026;48.784;9.198;2024-01-30T13:57:06;13.20;99.90
11934;DHT22;6026;48.784;9.198;2024-01-30T13:59:33;13.10;99.90
11934;DHT22;6026;48.784;9.198;2024-01-30T14:01:58;13.10;99.90
11934;DHT22;6026;48.784;9.198;2024-01-30T14:04:24;13.10;99.90
11934;DHT22;6026;48.784;9.198;2024-01-30T14:06:49;13.10;99.90
11934;DHT22;6026;48.784;9.198;2024-01-30T14:09:15;13.10;99.90
11934;DHT22;6026;48.784;9.198;2024-01-30T14:11:41;13.00;99.90
11934;DHT22;6026;48.784;9.198;2024-01-30T14:14:07;13.00;99.90
11934;DHT22;6026;48.784;9.198;2024-01-30T14:16:32;12.90;99.90
11934;DHT22;6026;48.784;9.198;2024-01-30T14:18:58;12.90;99.90
11934;DHT22;6026;48.784;9.198;2024-01-30T14:21:23;12.80;99.90
11934;DHT22;6026;48.784;9.198;2024-01-30T14:23:49;12.80;99.90
11934;DHT22;6026;48.784;9.198;2024-01-30T14:26:15;12.80;99.90
11934;DHT22;6026;48.784;9.198;2024-01-30T14:28:40;12.70;99.90
11934;DHT22;6026;48.784;9.198;2024-01-30T14:31:06;12.50;99.90
11934;DHT22;6026;48.784;9.198;2024-01-30T14:33:31;12.50;99.90
11934;DHT22;6026;48.784;9.198;2024-01-30T14:35:57;12.30;99.90
11934;DHT22;6026;48.784;9.198;2024-01-30T14:38:22;12.20;99.90
11934;DHT22;6026;48.784;9.198;2024-01-30T14:40:50;12.10;99.90
11934;DHT22;6026;48.784;9.198;2024-01-30T14:43:16;12.00;99.90
11934;DHT22;6026;48.784;9.198;2024-01-30T14:45:41;11.90;99.90
11934;DHT22;6026;48.784;9.198;2024-01-30T14:48:08;11.90;99.90
11934;DHT22;6026;48.784;9.198;2024-01-30T14:50:34;11.90;99.90
11934;DHT22;6026;48.784;9.198;2024-01-30T14:53:00;11.80;99.90
11934;DHT22;6026;48.784;9.198;2024-01-30T14:55:25;11.70;99.90
11934;DHT22;6026;48.784;9.198;2024-01-30T14:57:51;11.70;99.90
11934;DHT22;6026;48.784;9.198;2024-01-30T15:00:17;11.60;99.90
11934;DHT22;6026;48.784;9.198;2024-01-30T15:02:42;11.60;99.90
11934;DHT22;6026;48.784;9.198;2024-01-30T15:05:08;11.60;99.90
11934;DHT22;6026;48.784;9.198;2024-01-30T15:07:36;11.50;99.90
11934;DHT22;6026;48.784;9.198;2024-01-30T15:10:02;11.50;99.90
11934;DHT22;6026;48.784;9.198;2024-01-30T15:12:28;11.40;99.90
11934;DHT22;6026;48.784;9.198;2024-01-30T15:14:54;11.40;99.90
11934;DHT22;6026;48.784;9.198;2024-01-30T15:17:20;11.20;99.90
11934;DHT22;6026;48.784;9.198;2024-01-30T15:19:47;10.90;99.90
11934;DHT22;6026;48.784;9.198;2024-01-30T15:22:13;10.80;99.90
11934;DHT22;6026;48.784;9.198;2024-01-30T15:24:38;10.80;99.90
11934;DHT22;6026;48.784;9.198;2024-01-30T15:27:04;10.60;99.90
11934;DHT22;6026;48.784;9.198;2024-01-30T15:29:30;10.50;99.90
11934;DHT22;6026;48.784;9.198;2024-01-30T15:31:55;10.50;99.90
11934;DHT22;6026;48.784;9.198;2024-01-30T15:34:21;10.50;99.90
11934;DHT22;6026;48.784;9.198;2024-01-30T15:36:47;10.50;99.90
11934;DHT22;6026;48.784;9.198;2024-01-30T15:39:12;10.50;99.90
11934;DHT22;6026;48.784;9.198;2024-01-30T15:41:40;10.40;99.90
11934;DHT22;6026;48.784;9.198;2024-01-30T15:44:06;10.30;99.90
11934;DHT22;6026;48.784;9.198;2024-01-30T15:46:32;10.30;99.90
11934;DHT22;6026;48.784;9.198;2024-01-30T15:48:57;10.10;99.90
11934;DHT22;6026;48.784;9.198;2024-01-30T15:51:23;10.00;99.90
11934;DHT22;6026;48.784;9.198;2024-01-30T15:53:50;9.90;99.90